createdAt,value
2022-11-03T00:02:06.586Z,4.72
2022-11-03T00:04:33.414Z,4.33
2022-11-03T00:07:00.098Z,4.72
2022-11-03T00:09:27.588Z,4.18
2022-11-03T00:11:54.846Z,4.53
2022-11-03T00:14:21.731Z,4.90
2022-11-03T00:16:49.065Z,4.05
2022-11-03T00:19:17.685Z,3.70
2022-11-03T00:21:45.262Z,4.23
2022-11-03T00:24:12.827Z,4.77
2022-11-03T00:26:39.951Z,4.40
2022-11-03T00:29:09.885Z,5.50
2022-11-03T00:31:38.888Z,4.57
2022-11-03T00:34:07.435Z,3.77
2022-11-03T00:36:44.489Z,4.97
2022-11-03T00:39:12.960Z,5.90
2022-11-03T00:41:40.572Z,5.90
2022-11-03T00:44:08.533Z,4.60
2022-11-03T00:46:35.862Z,6.47
2022-11-03T00:49:04.839Z,6.40
2022-11-03T00:51:34.333Z,4.60
2022-11-03T00:54:03.628Z,5.03
2022-11-03T00:56:38.634Z,6.03
2022-11-03T00:59:07.438Z,6.07
2022-11-03T01:01:46.692Z,5.60
2022-11-03T01:04:33.214Z,6.47
2022-11-03T01:07:01.064Z,7.60
2022-11-03T01:09:35.179Z,7.60
2022-11-03T01:12:06.437Z,9.00
2022-11-03T01:14:44.014Z,9.23
2022-11-03T01:17:16.735Z,10.00
2022-11-03T01:19:43.534Z,9.07
2022-11-03T01:22:11.601Z,12.87
2022-11-03T01:24:40.493Z,11.70
2022-11-03T01:27:08.158Z,10.17
2022-11-03T01:29:34.990Z,9.13
2022-11-03T01:32:01.684Z,8.47
2022-11-03T01:34:28.476Z,8.50
2022-11-03T01:36:55.299Z,9.33
2022-11-03T01:39:22.228Z,8.77
2022-11-03T01:41:51.846Z,9.83
2022-11-03T01:44:18.631Z,7.03
2022-11-03T01:46:49.939Z,12.60
2022-11-03T01:49:31.876Z,6.23
2022-11-03T01:52:37.192Z,8.20
2022-11-03T01:55:16.119Z,8.67
2022-11-03T01:57:50.109Z,11.93
2022-11-03T02:00:16.981Z,11.60
2022-11-03T02:02:44.749Z,13.13
2022-11-03T02:05:14.179Z,13.87
2022-11-03T02:07:50.125Z,12.88
2022-11-03T02:10:17.850Z,12.87
2022-11-03T02:12:44.653Z,14.23
2022-11-03T02:15:17.295Z,14.37
2022-11-03T02:17:46.901Z,14.60
2022-11-03T02:20:21.004Z,13.55
2022-11-03T02:22:53.643Z,14.00
2022-11-03T02:25:35.688Z,13.73
2022-11-03T02:28:04.275Z,12.10
2022-11-03T02:30:38.760Z,10.60
2022-11-03T02:33:17.452Z,9.80
2022-11-03T02:35:52.588Z,10.20
2022-11-03T02:38:23.130Z,10.20
2022-11-03T02:40:54.673Z,9.87
2022-11-03T02:43:24.854Z,10.07
2022-11-03T02:48:19.972Z,10.03
2022-11-03T02:50:49.299Z,9.40
2022-11-03T02:53:16.344Z,10.00
2022-11-03T02:55:49.398Z,13.93
2022-11-03T02:58:24.606Z,16.83
2022-11-03T03:00:55.404Z,17.73
2022-11-03T03:03:40.652Z,17.00
2022-11-03T03:06:16.771Z,18.20
2022-11-03T03:08:49.067Z,19.00
2022-11-03T03:11:16.218Z,19.60
2022-11-03T03:13:44.776Z,19.10
2022-11-03T03:16:21.125Z,19.80
2022-11-03T03:19:00.967Z,18.53
2022-11-03T03:21:35.054Z,18.10
2022-11-03T03:24:08.511Z,19.10
2022-11-03T03:26:41.828Z,19.23
2022-11-03T03:29:18.791Z,19.23
2022-11-03T03:31:51.937Z,18.77
2022-11-03T03:34:34.696Z,20.50
2022-11-03T03:37:03.498Z,18.87
2022-11-03T03:39:34.551Z,20.53
2022-11-03T03:42:02.911Z,19.70
2022-11-03T03:44:32.754Z,19.80
2022-11-03T03:47:03.967Z,20.58
2022-11-03T03:49:30.695Z,20.37
2022-11-03T03:51:57.652Z,20.43
2022-11-03T03:54:24.498Z,18.67
2022-11-03T03:56:59.670Z,20.87
2022-11-03T03:59:26.502Z,18.52
2022-11-03T04:01:53.330Z,20.03
2022-11-03T04:04:20.230Z,19.37
2022-11-03T04:06:47.089Z,17.90
2022-11-03T04:09:13.879Z,17.70
2022-11-03T04:11:59.164Z,17.87
2022-11-03T04:14:44.844Z,17.20
2022-11-03T04:17:39.531Z,16.37
2022-11-03T04:20:31.110Z,17.00
2022-11-03T04:22:57.911Z,16.23
2022-11-03T04:25:24.623Z,16.43
2022-11-03T04:27:51.361Z,15.13
2022-11-03T04:30:20.546Z,15.17
2022-11-03T04:32:49.061Z,14.80
2022-11-03T04:35:17.573Z,14.90
2022-11-03T04:37:49.023Z,12.43
2022-11-03T04:40:17.125Z,12.50
2022-11-03T04:42:45.252Z,12.80
2022-11-03T04:45:21.736Z,11.77
2022-11-03T04:47:48.488Z,11.47
2022-11-03T04:50:19.486Z,11.20
2022-11-03T04:52:48.537Z,11.33
2022-11-03T04:55:16.910Z,10.20
2022-11-03T04:57:44.919Z,10.60
2022-11-03T05:00:17.736Z,10.30
2022-11-03T05:02:54.715Z,9.80
2022-11-03T05:05:26.248Z,7.90
2022-11-03T05:07:55.702Z,8.93
2022-11-03T05:10:27.264Z,7.25
2022-11-03T05:12:55.221Z,6.77
2022-11-03T05:15:40.795Z,6.97
2022-11-03T05:18:17.302Z,6.35
2022-11-03T05:20:54.926Z,7.13
2022-11-03T05:23:22.958Z,6.75
2022-11-03T05:25:59.691Z,6.47
2022-11-03T05:28:30.859Z,6.07
2022-11-03T05:30:57.703Z,7.38
2022-11-03T05:33:36.273Z,6.55
2022-11-03T05:36:16.695Z,6.03
2022-11-03T05:38:43.559Z,5.90
2022-11-03T05:41:27.880Z,5.85
2022-11-03T05:44:03.581Z,6.22
2022-11-03T05:46:33.344Z,6.72
2022-11-03T05:49:04.083Z,5.88
2022-11-03T05:51:35.062Z,5.50
2022-11-03T05:54:05.220Z,6.68
2022-11-03T05:59:01.412Z,6.10
2022-11-03T06:01:34.303Z,6.30
2022-11-03T06:04:14.406Z,6.20
2022-11-03T06:09:27.011Z,6.00
2022-11-03T06:12:01.923Z,6.00
2022-11-03T06:14:31.433Z,6.25
2022-11-03T06:17:07.459Z,5.80
2022-11-03T06:19:36.874Z,6.20
2022-11-03T06:22:18.837Z,6.32
2022-11-03T06:24:45.999Z,5.65
2022-11-03T06:27:20.593Z,5.80
2022-11-03T06:29:52.582Z,5.80
2022-11-03T06:32:19.321Z,6.10
2022-11-03T06:34:52.511Z,6.22
2022-11-03T06:37:23.605Z,6.75
2022-11-03T06:39:51.934Z,7.82
2022-11-03T06:42:21.603Z,7.15
2022-11-03T06:44:50.526Z,7.40
2022-11-03T06:47:23.266Z,7.30
2022-11-03T06:49:55.423Z,7.30
2022-11-03T06:52:40.138Z,7.45
2022-11-03T06:55:15.733Z,10.00
2022-11-03T06:57:46.638Z,11.20
2022-11-03T07:03:26.981Z,9.65
2022-11-03T07:05:58.496Z,10.85
2022-11-03T07:08:30.470Z,12.30
2022-11-03T07:10:59.984Z,10.70
2022-11-03T07:13:28.695Z,10.35
2022-11-03T07:15:55.860Z,11.00
2022-11-03T07:18:31.461Z,11.10
2022-11-03T07:20:59.069Z,11.93
2022-11-03T07:23:29.235Z,12.95
2022-11-03T07:28:33.313Z,15.27
2022-11-03T07:31:02.460Z,12.10
2022-11-03T07:33:31.531Z,13.00
2022-11-03T07:36:16.804Z,12.30
2022-11-03T07:38:46.737Z,13.75
2022-11-03T07:41:19.704Z,13.02
2022-11-03T07:43:57.034Z,13.68
2022-11-03T07:46:25.422Z,12.93
2022-11-03T07:48:56.882Z,12.85
2022-11-03T07:51:32.685Z,13.07
2022-11-03T07:54:09.676Z,13.02
2022-11-03T07:56:41.297Z,14.25
2022-11-03T07:59:14.059Z,11.95
2022-11-03T08:01:43.046Z,11.40
2022-11-03T08:04:39.097Z,11.10
2022-11-03T08:07:05.804Z,12.90
2022-11-03T08:09:32.517Z,11.73
2022-11-03T08:12:00.680Z,11.13
2022-11-03T08:14:27.950Z,11.30
2022-11-03T08:16:54.729Z,12.27
2022-11-03T08:19:21.504Z,11.23
2022-11-03T08:21:48.217Z,12.35
2022-11-03T08:24:14.932Z,10.10
2022-11-03T08:26:41.737Z,12.45
2022-11-03T08:29:08.465Z,11.90
2022-11-03T08:31:35.168Z,12.82
2022-11-03T08:34:01.929Z,11.70
2022-11-03T08:36:28.771Z,12.30
2022-11-03T08:38:55.571Z,12.80
2022-11-03T08:41:22.484Z,13.10
2022-11-03T08:43:49.183Z,13.10
2022-11-03T08:46:17.960Z,13.50
2022-11-03T08:48:46.426Z,13.15
2022-11-03T08:51:14.330Z,13.02
2022-11-03T08:53:42.916Z,13.90
2022-11-03T08:56:12.950Z,13.15
2022-11-03T08:58:41.500Z,12.48
2022-11-03T09:01:08.286Z,12.30
2022-11-03T09:03:35.196Z,13.95
2022-11-03T09:06:02.145Z,11.75
2022-11-03T09:11:15.755Z,11.95
2022-11-03T09:13:42.445Z,12.98
2022-11-03T09:16:09.501Z,12.02
2022-11-03T09:18:36.260Z,13.32
2022-11-03T09:21:03.024Z,12.18
2022-11-03T09:23:29.868Z,11.60
2022-11-03T09:25:56.574Z,11.52
2022-11-03T09:28:23.395Z,12.45
2022-11-03T09:30:50.186Z,12.85
2022-11-03T09:33:16.985Z,11.95
2022-11-03T09:35:43.693Z,15.10
2022-11-03T09:38:10.539Z,13.43
2022-11-03T09:40:37.550Z,13.27
2022-11-03T09:43:04.550Z,13.60
2022-11-03T09:45:32.240Z,14.63
2022-11-03T09:47:59.242Z,14.02
2022-11-03T09:50:26.050Z,15.35
2022-11-03T09:52:54.547Z,13.63
2022-11-03T09:55:26.575Z,13.48
2022-11-03T09:57:56.210Z,13.65
2022-11-03T10:00:24.559Z,13.60
2022-11-03T10:02:51.531Z,14.32
2022-11-03T10:05:26.876Z,13.30
2022-11-03T10:07:59.129Z,13.35
2022-11-03T10:10:26.692Z,13.82
2022-11-03T10:12:53.883Z,12.90
2022-11-03T10:15:23.548Z,13.95
2022-11-03T10:17:52.117Z,13.32
2022-11-03T10:22:52.823Z,12.30
2022-11-03T10:25:38.227Z,13.40
2022-11-03T10:28:24.364Z,14.43
2022-11-03T10:31:13.272Z,12.93
2022-11-03T10:34:00.955Z,13.23
2022-11-03T10:36:30.280Z,14.32
2022-11-03T10:38:57.590Z,13.10
2022-11-03T10:41:32.689Z,12.73
2022-11-03T10:44:21.833Z,15.10
2022-11-03T10:47:03.298Z,13.23
2022-11-03T10:49:39.223Z,13.30
2022-11-03T10:52:21.239Z,12.88
2022-11-03T10:54:49.451Z,13.50
2022-11-03T10:57:17.600Z,13.57
2022-11-03T10:59:46.741Z,13.32
2022-11-03T11:02:36.750Z,12.48
2022-11-03T11:07:41.984Z,12.68
2022-11-03T11:10:13.616Z,14.32
2022-11-03T11:13:00.080Z,14.00
2022-11-03T11:15:43.387Z,14.23
2022-11-03T11:18:11.335Z,15.73
2022-11-03T11:20:41.553Z,16.38
2022-11-03T11:23:37.720Z,14.65
2022-11-03T11:26:10.632Z,14.85
2022-11-03T11:28:38.826Z,13.20
2022-11-03T11:31:27.389Z,13.40
2022-11-03T11:34:09.363Z,13.07
2022-11-03T11:36:45.553Z,12.02
2022-11-03T11:39:24.711Z,11.90
2022-11-03T11:42:18.861Z,10.85
2022-11-03T11:44:48.466Z,10.90
2022-11-03T11:47:25.550Z,12.25
2022-11-03T11:50:07.665Z,10.57
2022-11-03T11:52:55.656Z,11.88
2022-11-03T11:55:25.206Z,12.23
2022-11-03T11:57:53.949Z,11.60
2022-11-03T12:00:26.060Z,10.00
2022-11-03T12:02:53.678Z,11.77
2022-11-03T12:05:32.418Z,11.00
2022-11-03T12:07:59.810Z,12.00
2022-11-03T12:10:29.607Z,14.80
2022-11-03T12:12:57.430Z,12.70
2022-11-03T12:15:56.549Z,18.27
2022-11-03T12:18:39.141Z,11.60
2022-11-03T12:21:14.654Z,10.07
2022-11-03T12:23:46.268Z,11.88
2022-11-03T12:26:37.626Z,11.30
2022-11-03T12:29:08.098Z,11.20
2022-11-03T12:31:36.960Z,12.15
2022-11-03T12:34:03.949Z,11.40
2022-11-03T12:36:30.716Z,11.70
2022-11-03T12:38:57.427Z,12.30
2022-11-03T12:41:27.117Z,12.07
2022-11-03T12:43:56.262Z,10.20
2022-11-03T12:46:23.140Z,10.20
2022-11-03T12:48:50.220Z,9.55
2022-11-03T12:51:19.285Z,8.75
2022-11-03T12:53:46.452Z,8.80
2022-11-03T12:56:14.524Z,8.68
2022-11-03T12:58:41.955Z,7.40
2022-11-03T13:01:09.094Z,7.10
2022-11-03T13:03:36.981Z,7.47
2022-11-03T13:06:06.881Z,8.73
2022-11-03T13:08:33.770Z,7.85
2022-11-03T13:11:00.456Z,7.78
2022-11-03T13:13:27.435Z,7.88
2022-11-03T13:15:54.344Z,7.10
2022-11-03T13:18:22.693Z,7.05
2022-11-03T13:20:49.512Z,7.03
2022-11-03T13:23:18.912Z,8.35
2022-11-03T13:25:48.879Z,8.75
2022-11-03T13:28:15.759Z,6.90
2022-11-03T13:30:43.476Z,7.72
2022-11-03T13:33:10.735Z,11.02
2022-11-03T13:35:37.840Z,9.93
2022-11-03T13:38:04.571Z,7.55
2022-11-03T13:43:18.178Z,6.53
2022-11-03T13:45:45.126Z,8.65
2022-11-03T13:51:00.344Z,7.07
2022-11-03T13:56:19.519Z,11.50
2022-11-03T14:01:36.648Z,7.18
2022-11-03T14:06:50.581Z,7.18
2022-11-03T14:09:17.461Z,6.07
2022-11-03T14:12:02.879Z,6.88
2022-11-03T14:14:29.654Z,7.13
2022-11-03T14:16:56.491Z,6.32
2022-11-03T14:19:30.823Z,8.23
2022-11-03T14:22:02.328Z,8.50
2022-11-03T14:24:29.180Z,7.68
2022-11-03T14:26:55.977Z,7.45
2022-11-03T14:29:22.771Z,8.27
2022-11-03T14:31:49.564Z,7.63
2022-11-03T14:34:16.321Z,8.77
2022-11-03T14:36:43.152Z,7.18
2022-11-03T14:39:10.048Z,7.55
2022-11-03T14:41:55.421Z,6.45
2022-11-03T14:44:22.436Z,4.55
2022-11-03T14:46:49.665Z,5.65
2022-11-03T14:49:16.381Z,4.15
2022-11-03T14:51:43.341Z,4.03
2022-11-03T14:54:10.037Z,4.50
2022-11-03T14:56:36.779Z,4.45
2022-11-03T14:59:03.854Z,4.80
2022-11-03T15:01:31.198Z,5.72
2022-11-03T15:03:58.127Z,3.88
2022-11-03T15:06:25.370Z,5.00
2022-11-03T15:08:56.129Z,4.40
2022-11-03T15:11:23.499Z,3.90
2022-11-03T15:13:52.591Z,5.20
2022-11-03T15:16:19.886Z,4.22
2022-11-03T15:18:46.876Z,4.00
2022-11-03T15:21:14.212Z,5.03
2022-11-03T15:26:28.004Z,6.07
2022-11-03T15:28:54.800Z,5.05
2022-11-03T15:31:23.681Z,4.40
2022-11-03T15:33:50.662Z,5.03
2022-11-03T15:36:17.462Z,5.40
2022-11-03T15:38:44.267Z,4.80
2022-11-03T15:41:16.884Z,4.93
2022-11-03T15:43:45.524Z,4.90
2022-11-03T15:46:13.975Z,5.40
2022-11-03T15:48:41.158Z,5.20
2022-11-03T15:51:08.046Z,4.68
2022-11-03T15:53:34.844Z,5.72
2022-11-03T15:56:01.943Z,6.53
2022-11-03T15:58:30.204Z,5.28
2022-11-03T16:00:56.915Z,5.03
2022-11-03T16:03:23.803Z,5.57
2022-11-03T16:05:50.681Z,5.95
2022-11-03T16:08:17.361Z,5.40
2022-11-03T16:10:50.568Z,4.75
2022-11-03T16:13:19.959Z,5.88
2022-11-03T16:15:46.944Z,4.65
2022-11-03T16:18:14.166Z,5.45
2022-11-03T16:20:40.863Z,6.80
2022-11-03T16:23:07.819Z,4.95
2022-11-03T16:25:34.739Z,4.57
2022-11-03T16:28:01.975Z,5.65
2022-11-03T16:30:28.865Z,5.45
2022-11-03T16:32:55.927Z,4.70
2022-11-03T16:35:22.662Z,5.95
2022-11-03T16:37:49.758Z,5.25
2022-11-03T16:40:19.670Z,5.82
2022-11-03T16:42:47.690Z,4.68
2022-11-03T16:45:20.860Z,5.30
2022-11-03T16:47:48.830Z,6.07
2022-11-03T16:50:18.659Z,5.93
2022-11-03T16:52:49.643Z,6.70
2022-11-03T16:55:18.736Z,6.60
2022-11-03T16:57:46.362Z,7.73
2022-11-03T17:00:16.754Z,6.57
2022-11-03T17:02:44.486Z,5.50
2022-11-03T17:05:12.685Z,6.90
2022-11-03T17:07:40.090Z,6.75
2022-11-03T17:10:08.114Z,6.57
2022-11-03T17:12:35.071Z,5.32
2022-11-03T17:15:01.960Z,5.07
2022-11-03T17:17:28.752Z,9.55
2022-11-03T17:19:55.543Z,6.80
2022-11-03T17:22:22.697Z,5.10
2022-11-03T17:24:50.006Z,6.22
2022-11-03T17:27:18.156Z,6.38
2022-11-03T17:29:50.570Z,6.78
2022-11-03T17:32:30.691Z,6.10
2022-11-03T17:37:28.223Z,5.28
2022-11-03T17:39:55.894Z,6.40
2022-11-03T17:42:27.939Z,6.38
2022-11-03T17:44:56.711Z,5.80
2022-11-03T17:47:24.422Z,6.72
2022-11-03T17:49:51.798Z,6.03
2022-11-03T17:52:28.289Z,6.78
2022-11-03T17:54:58.714Z,5.85
2022-11-03T17:57:26.526Z,6.35
2022-11-03T17:59:55.692Z,6.20
2022-11-03T18:02:25.187Z,6.20
2022-11-03T18:05:00.614Z,5.50
2022-11-03T18:07:29.561Z,5.55
2022-11-03T18:09:56.433Z,6.57
2022-11-03T18:12:47.525Z,6.53
2022-11-03T18:15:21.912Z,6.35
2022-11-03T18:17:48.929Z,5.25
2022-11-03T18:20:19.560Z,6.75
2022-11-03T18:22:46.700Z,6.13
2022-11-03T18:25:14.970Z,7.28
2022-11-03T18:27:42.094Z,6.53
2022-11-03T18:30:10.284Z,7.70
2022-11-03T18:32:39.932Z,7.30
2022-11-03T18:35:14.037Z,7.68
2022-11-03T18:37:44.317Z,7.65
2022-11-03T18:40:12.934Z,7.90
2022-11-03T18:42:39.644Z,7.50
2022-11-03T18:45:12.416Z,8.02
2022-11-03T18:47:39.208Z,7.72
2022-11-03T18:50:07.722Z,6.50
2022-11-03T18:52:41.205Z,9.45
2022-11-03T18:55:16.194Z,8.40
2022-11-03T18:57:43.878Z,9.97
2022-11-03T19:00:15.761Z,6.97
2022-11-03T19:02:42.538Z,9.85
2022-11-03T19:05:13.760Z,8.47
2022-11-03T19:07:42.619Z,9.30
2022-11-03T19:10:19.778Z,10.20
2022-11-03T19:12:47.393Z,12.00
2022-11-03T19:15:23.317Z,13.30
2022-11-03T19:17:52.568Z,12.27
2022-11-03T19:20:19.479Z,14.63
2022-11-03T19:22:46.772Z,14.13
2022-11-03T19:25:14.994Z,13.17
2022-11-03T19:27:44.727Z,13.53
2022-11-03T19:30:15.141Z,12.43
2022-11-03T19:32:47.534Z,14.17
2022-11-03T19:35:45.661Z,13.27
2022-11-03T19:38:18.070Z,13.67
2022-11-03T19:41:04.708Z,12.90
2022-11-03T19:43:34.915Z,13.63
2022-11-03T19:46:02.616Z,14.83
2022-11-03T19:48:33.509Z,14.23
2022-11-03T19:51:00.322Z,12.50
2022-11-03T19:53:29.281Z,11.77
2022-11-03T19:55:57.062Z,11.13
2022-11-03T19:58:26.319Z,11.83
2022-11-03T20:00:53.990Z,10.03
2022-11-03T20:03:22.417Z,9.40
2022-11-03T20:08:22.288Z,10.70
2022-11-03T20:10:49.261Z,11.35
2022-11-03T20:13:18.262Z,10.53
2022-11-03T20:15:45.437Z,9.50
2022-11-03T20:18:12.628Z,9.40
2022-11-03T20:20:40.635Z,10.80
2022-11-03T20:23:14.053Z,11.67
2022-11-03T20:25:40.754Z,10.70
2022-11-03T20:28:23.189Z,10.13
2022-11-03T20:30:50.310Z,11.17
2022-11-03T20:33:19.028Z,10.60
2022-11-03T20:35:48.224Z,11.10
2022-11-03T20:38:19.302Z,10.33
2022-11-03T20:40:46.858Z,9.70
2022-11-03T20:43:29.305Z,7.83
2022-11-03T20:45:56.641Z,8.43
2022-11-03T20:48:24.255Z,6.90
2022-11-03T20:50:52.476Z,8.47
2022-11-03T20:53:21.769Z,8.50
2022-11-03T20:55:48.847Z,7.10
2022-11-03T20:58:18.056Z,9.37
2022-11-03T21:00:46.652Z,14.73
2022-11-03T21:04:04.691Z,11.27
2022-11-03T21:06:27.947Z,9.97
2022-11-03T21:08:55.453Z,8.70
2022-11-03T21:11:29.116Z,9.20
2022-11-03T21:14:02.127Z,9.30
2022-11-03T21:16:48.929Z,9.43
2022-11-03T21:19:46.015Z,10.77
2022-11-03T21:22:51.250Z,9.43
2022-11-03T21:25:04.902Z,9.38
2022-11-03T21:27:31.582Z,13.83
2022-11-03T21:29:59.666Z,13.37
2022-11-03T21:32:26.951Z,12.60
2022-11-03T21:34:53.641Z,10.60
2022-11-03T21:37:20.466Z,11.47
2022-11-03T21:39:47.787Z,11.07
2022-11-03T21:42:34.252Z,10.93
2022-11-03T21:45:01.210Z,10.07
2022-11-03T21:47:28.307Z,9.10
2022-11-03T21:49:55.175Z,8.63
2022-11-03T21:52:32.135Z,7.87
2022-11-03T21:55:03.071Z,8.30
2022-11-03T21:57:30.167Z,7.63
2022-11-03T22:00:00.578Z,8.70
2022-11-03T22:02:30.161Z,8.03
2022-11-03T22:04:57.372Z,8.40
2022-11-03T22:07:24.418Z,7.87
2022-11-03T22:09:51.246Z,7.47
2022-11-03T22:12:17.963Z,7.60
2022-11-03T22:15:03.483Z,6.77
2022-11-03T22:17:30.337Z,7.10
2022-11-03T22:20:15.839Z,7.23
2022-11-03T22:23:01.321Z,8.00
2022-11-03T22:25:51.428Z,9.03
2022-11-03T22:28:18.302Z,8.43
2022-11-03T22:31:03.838Z,7.70
2022-11-03T22:33:30.531Z,6.97
2022-11-03T22:36:21.550Z,7.50
2022-11-03T22:39:07.093Z,7.80
2022-11-03T22:41:52.896Z,8.93
2022-11-03T22:44:38.314Z,8.30
2022-11-03T22:47:08.171Z,7.73
2022-11-03T22:49:35.726Z,10.90
2022-11-03T22:52:02.663Z,8.53
2022-11-03T22:54:29.498Z,11.23
2022-11-03T22:56:56.237Z,8.60
2022-11-03T22:59:22.987Z,8.00
2022-11-03T23:01:49.925Z,8.30
2022-11-03T23:04:16.753Z,9.03
2022-11-03T23:06:43.558Z,8.63
2022-11-03T23:09:13.135Z,8.33
2022-11-03T23:11:39.896Z,8.75
2022-11-03T23:14:08.944Z,8.27
2022-11-03T23:16:38.198Z,9.80
2022-11-03T23:19:24.829Z,9.90
2022-11-03T23:21:53.008Z,10.00
2022-11-03T23:24:42.215Z,9.73
2022-11-03T23:27:12.199Z,11.30
2022-11-03T23:29:38.879Z,9.70
2022-11-03T23:32:05.831Z,9.63
2022-11-03T23:34:35.371Z,8.73
2022-11-03T23:37:02.872Z,9.07
2022-11-03T23:39:29.806Z,10.10
2022-11-03T23:41:56.628Z,8.93
2022-11-03T23:44:23.464Z,7.97
2022-11-03T23:47:08.824Z,9.00
2022-11-03T23:49:35.537Z,9.80
2022-11-03T23:52:02.275Z,9.50
2022-11-03T23:54:29.167Z,8.73
2022-11-03T23:57:14.365Z,9.17
2022-11-03T23:59:41.191Z,7.93
